sensor_id;sensor_type;location;lat;lon;timestamp;temperature;humidity
9393;DHT22;4736;52.508;13.422;2022-08-21T00:01:28;20.30;1.00
9393;DHT22;4736;52.508;13.422;2022-08-21T00:04:33;20.30;1.00
9393;DHT22;4736;52.508;13.422;2022-08-21T00:07:36;20.30;1.00
9393;DHT22;4736;52.508;13.422;2022-08-21T00:10:40;20.30;1.00
9393;DHT22;4736;52.508;13.422;2022-08-21T00:13:49;20.30;1.00
9393;DHT22;4736;52.508;13.422;2022-08-21T00:16:52;20.20;1.00
9393;DHT22;4736;52.508;13.422;2022-08-21T00:20:04;20.20;1.00
9393;DHT22;4736;52.508;13.422;2022-08-21T00:23:07;20.20;1.00
9393;DHT22;4736;52.508;13.422;2022-08-21T00:26:10;20.20;1.00
9393;DHT22;4736;52.508;13.422;2022-08-21T00:29:13;20.20;1.00
9393;DHT22;4736;52.508;13.422;2022-08-21T00:32:20;20.10;1.00
9393;DHT22;4736;52.508;13.422;2022-08-21T00:35:27;20.10;1.00
9393;DHT22;4736;52.508;13.422;2022-08-21T00:38:30;20.10;1.00
9393;DHT22;4736;52.508;13.422;2022-08-21T00:41:35;20.10;1.00
9393;DHT22;4736;52.508;13.422;2022-08-21T00:44:42;20.00;1.00
9393;DHT22;4736;52.508;13.422;2022-08-21T00:47:45;20.00;1.00
9393;DHT22;4736;52.508;13.422;2022-08-21T00:50:53;20.00;1.00
9393;DHT22;4736;52.508;13.422;2022-08-21T00:53:59;20.00;1.00
9393;DHT22;4736;52.508;13.422;2022-08-21T00:57:08;19.90;1.00
9393;DHT22;4736;52.508;13.422;2022-08-21T01:00:16;19.90;1.00
9393;DHT22;4736;52.508;13.422;2022-08-21T01:03:23;19.90;1.00
9393;DHT22;4736;52.508;13.422;2022-08-21T01:06:28;19.90;1.00
9393;DHT22;4736;52.508;13.422;2022-08-21T01:09:31;19.90;1.00
9393;DHT22;4736;52.508;13.422;2022-08-21T01:12:34;19.90;1.00
9393;DHT22;4736;52.508;13.422;2022-08-21T01:15:39;19.90;1.00
9393;DHT22;4736;52.508;13.422;2022-08-21T01:18:45;19.90;1.00
9393;DHT22;4736;52.508;13.422;2022-08-21T01:21:52;19.80;1.00
9393;DHT22;4736;52.508;13.422;2022-08-21T01:24:55;19.80;1.00
9393;DHT22;4736;52.508;13.422;2022-08-21T01:28:04;19.70;1.00
9393;DHT22;4736;52.508;13.422;2022-08-21T01:31:10;19.80;1.00
9393;DHT22;4736;52.508;13.422;2022-08-21T01:34:15;19.70;1.00
9393;DHT22;4736;52.508;13.422;2022-08-21T01:37:21;19.70;1.00
9393;DHT22;4736;52.508;13.422;2022-08-21T01:40:24;19.70;1.00
9393;DHT22;4736;52.508;13.422;2022-08-21T01:43:26;19.60;1.00
9393;DHT22;4736;52.508;13.422;2022-08-21T01:46:39;19.60;1.00
9393;DHT22;4736;52.508;13.422;2022-08-21T01:49:43;19.60;1.00
9393;DHT22;4736;52.508;13.422;2022-08-21T01:52:49;19.50;1.00
9393;DHT22;4736;52.508;13.422;2022-08-21T01:55:54;19.50;1.00
9393;DHT22;4736;52.508;13.422;2022-08-21T01:58:57;19.40;1.00
9393;DHT22;4736;52.508;13.422;2022-08-21T02:02:06;19.40;1.00
9393;DHT22;4736;52.508;13.422;2022-08-21T02:05:11;19.30;1.00
9393;DHT22;4736;52.508;13.422;2022-08-21T02:08:16;19.30;1.00
9393;DHT22;4736;52.508;13.422;2022-08-21T02:11:19;19.30;1.00
9393;DHT22;4736;52.508;13.422;2022-08-21T02:14:22;19.20;1.00
9393;DHT22;4736;52.508;13.422;2022-08-21T02:17:38;19.20;1.00
9393;DHT22;4736;52.508;13.422;2022-08-21T02:20:44;19.20;1.00
9393;DHT22;4736;52.508;13.422;2022-08-21T02:24:10;19.10;1.00
9393;DHT22;4736;52.508;13.422;2022-08-21T02:27:16;19.10;1.00
9393;DHT22;4736;52.508;13.422;2022-08-21T02:30:30;19.10;1.00
9393;DHT22;4736;52.508;13.422;2022-08-21T02:33:33;19.00;1.00
9393;DHT22;4736;52.508;13.422;2022-08-21T02:36:36;19.10;1.00
9393;DHT22;4736;52.508;13.422;2022-08-21T02:39:41;19.00;1.00
9393;DHT22;4736;52.508;13.422;2022-08-21T02:42:52;19.00;1.00
9393;DHT22;4736;52.508;13.422;2022-08-21T02:45:56;18.90;1.00
9393;DHT22;4736;52.508;13.422;2022-08-21T02:49:06;18.90;1.00
9393;DHT22;4736;52.508;13.422;2022-08-21T02:52:09;18.90;1.00
9393;DHT22;4736;52.508;13.422;2022-08-21T02:55:15;18.80;1.00
9393;DHT22;4736;52.508;13.422;2022-08-21T02:58:20;18.80;1.00
9393;DHT22;4736;52.508;13.422;2022-08-21T03:01:24;18.70;1.00
9393;DHT22;4736;52.508;13.422;2022-08-21T03:04:28;18.70;1.00
9393;DHT22;4736;52.508;13.422;2022-08-21T03:07:31;18.60;1.00
9393;DHT22;4736;52.508;13.422;2022-08-21T03:10:35;18.60;1.00
9393;DHT22;4736;52.508;13.422;2022-08-21T03:13:39;18.60;1.00
9393;DHT22;4736;52.508;13.422;2022-08-21T03:16:41;18.60;1.00
9393;DHT22;4736;52.508;13.422;2022-08-21T03:19:45;18.50;1.00
9393;DHT22;4736;52.508;13.422;2022-08-21T03:22:48;18.40;1.00
9393;DHT22;4736;52.508;13.422;2022-08-21T03:25:55;18.50;1.00
9393;DHT22;4736;52.508;13.422;2022-08-21T03:28:58;18.40;1.00
9393;DHT22;4736;52.508;13.422;2022-08-21T03:32:01;18.40;1.00
9393;DHT22;4736;52.508;13.422;2022-08-21T03:35:07;18.40;1.00
9393;DHT22;4736;52.508;13.422;2022-08-21T03:38:11;18.40;1.00
9393;DHT22;4736;52.508;13.422;2022-08-21T03:41:17;18.40;1.00
9393;DHT22;4736;52.508;13.422;2022-08-21T03:44:20;18.30;1.00
9393;DHT22;4736;52.508;13.422;2022-08-21T03:47:23;18.20;1.00
9393;DHT22;4736;52.508;13.422;2022-08-21T03:50:29;18.20;1.00
9393;DHT22;4736;52.508;13.422;2022-08-21T03:53:32;18.20;1.00
9393;DHT22;4736;52.508;13.422;2022-08-21T03:56:37;18.20;1.00
9393;DHT22;4736;52.508;13.422;2022-08-21T03:59:40;18.10;1.00
9393;DHT22;4736;52.508;13.422;2022-08-21T04:02:45;18.10;1.00
9393;DHT22;4736;52.508;13.422;2022-08-21T04:05:49;18.10;1.00
9393;DHT22;4736;52.508;13.422;2022-08-21T04:08:52;18.00;1.00
9393;DHT22;4736;52.508;13.422;2022-08-21T04:11:58;18.00;1.00
9393;DHT22;4736;52.508;13.422;2022-08-21T04:15:08;18.00;1.00
9393;DHT22;4736;52.508;13.422;2022-08-21T04:18:12;18.00;1.00
9393;DHT22;4736;52.508;13.422;2022-08-21T04:21:15;17.90;1.00
9393;DHT22;4736;52.508;13.422;2022-08-21T04:24:22;17.90;1.00
9393;DHT22;4736;52.508;13.422;2022-08-21T04:27:27;18.00;1.00
9393;DHT22;4736;52.508;13.422;2022-08-21T04:30:31;17.90;1.00
9393;DHT22;4736;52.508;13.422;2022-08-21T04:33:34;17.90;1.00
9393;DHT22;4736;52.508;13.422;2022-08-21T04:36:38;17.90;1.00
9393;DHT22;4736;52.508;13.422;2022-08-21T04:39:41;18.00;1.00
9393;DHT22;4736;52.508;13.422;2022-08-21T04:42:47;18.00;1.00
9393;DHT22;4736;52.508;13.422;2022-08-21T04:46:08;17.90;1.00
9393;DHT22;4736;52.508;13.422;2022-08-21T04:49:16;17.90;1.00
9393;DHT22;4736;52.508;13.422;2022-08-21T04:52:21;17.90;1.00
9393;DHT22;4736;52.508;13.422;2022-08-21T04:55:28;17.90;1.00
9393;DHT22;4736;52.508;13.422;2022-08-21T04:58:38;18.00;1.00
9393;DHT22;4736;52.508;13.422;2022-08-21T05:01:43;18.00;1.00
9393;DHT22;4736;52.508;13.422;2022-08-21T05:04:48;18.00;1.00
9393;DHT22;4736;52.508;13.422;2022-08-21T05:07:53;18.00;1.00
9393;DHT22;4736;52.508;13.422;2022-08-21T05:10:56;18.00;1.00
9393;DHT22;4736;52.508;13.422;2022-08-21T05:14:02;18.00;1.00
9393;DHT22;4736;52.508;13.422;2022-08-21T05:17:05;18.10;1.00
9393;DHT22;4736;52.508;13.422;2022-08-21T05:20:10;18.10;1.00
9393;DHT22;4736;52.508;13.422;2022-08-21T05:23:14;18.10;1.00
9393;DHT22;4736;52.508;13.422;2022-08-21T05:26:17;18.10;1.00
9393;DHT22;4736;52.508;13.422;2022-08-21T05:29:25;18.10;1.00
9393;DHT22;4736;52.508;13.422;2022-08-21T05:32:29;18.10;1.00
9393;DHT22;4736;52.508;13.422;2022-08-21T05:35:33;18.10;1.00
9393;DHT22;4736;52.508;13.422;2022-08-21T05:38:36;18.10;1.00
9393;DHT22;4736;52.508;13.422;2022-08-21T05:41:39;18.20;1.00
9393;DHT22;4736;52.508;13.422;2022-08-21T05:44:44;18.20;1.00
9393;DHT22;4736;52.508;13.422;2022-08-21T05:47:49;18.30;1.00
9393;DHT22;4736;52.508;13.422;2022-08-21T05:50:52;18.30;1.00
9393;DHT22;4736;52.508;13.422;2022-08-21T05:53:55;18.40;1.00
9393;DHT22;4736;52.508;13.422;2022-08-21T05:56:58;18.40;1.00
9393;DHT22;4736;52.508;13.422;2022-08-21T06:00:11;18.50;1.00
9393;DHT22;4736;52.508;13.422;2022-08-21T06:03:17;18.50;1.00
9393;DHT22;4736;52.508;13.422;2022-08-21T06:06:20;18.50;1.00
9393;DHT22;4736;52.508;13.422;2022-08-21T06:09:24;18.60;1.00
9393;DHT22;4736;52.508;13.422;2022-08-21T06:12:27;18.70;1.00
9393;DHT22;4736;52.508;13.422;2022-08-21T06:15:31;18.70;1.00
9393;DHT22;4736;52.508;13.422;2022-08-21T06:18:35;18.70;1.00
9393;DHT22;4736;52.508;13.422;2022-08-21T06:21:38;18.70;1.00
9393;DHT22;4736;52.508;13.422;2022-08-21T06:24:41;18.80;1.00
9393;DHT22;4736;52.508;13.422;2022-08-21T06:27:44;18.80;1.00
9393;DHT22;4736;52.508;13.422;2022-08-21T06:30:49;18.80;1.00
9393;DHT22;4736;52.508;13.422;2022-08-21T06:33:55;18.90;1.00
9393;DHT22;4736;52.508;13.422;2022-08-21T06:36:59;19.00;1.00
9393;DHT22;4736;52.508;13.422;2022-08-21T06:40:03;19.00;1.00
9393;DHT22;4736;52.508;13.422;2022-08-21T06:43:15;19.00;1.00
9393;DHT22;4736;52.508;13.422;2022-08-21T06:46:21;19.10;1.00
9393;DHT22;4736;52.508;13.422;2022-08-21T06:49:25;19.20;1.00
9393;DHT22;4736;52.508;13.422;2022-08-21T06:52:28;19.20;1.00
9393;DHT22;4736;52.508;13.422;2022-08-21T06:55:31;19.20;1.00
9393;DHT22;4736;52.508;13.422;2022-08-21T06:58:38;19.30;1.00
9393;DHT22;4736;52.508;13.422;2022-08-21T07:01:42;19.40;1.00
9393;DHT22;4736;52.508;13.422;2022-08-21T07:04:46;19.50;1.00
9393;DHT22;4736;52.508;13.422;2022-08-21T07:07:48;19.60;1.00
9393;DHT22;4736;52.508;13.422;2022-08-21T07:10:52;19.80;1.00
9393;DHT22;4736;52.508;13.422;2022-08-21T07:13:56;19.90;1.00
9393;DHT22;4736;52.508;13.422;2022-08-21T07:17:01;20.00;1.00
9393;DHT22;4736;52.508;13.422;2022-08-21T07:20:05;20.10;1.00
9393;DHT22;4736;52.508;13.422;2022-08-21T07:23:10;20.20;1.00
9393;DHT22;4736;52.508;13.422;2022-08-21T07:26:18;20.20;1.00
9393;DHT22;4736;52.508;13.422;2022-08-21T07:29:22;20.40;1.00
9393;DHT22;4736;52.508;13.422;2022-08-21T07:32:26;20.50;1.00
9393;DHT22;4736;52.508;13.422;2022-08-21T07:35:38;20.40;1.00
9393;DHT22;4736;52.508;13.422;2022-08-21T07:38:41;20.50;1.00
9393;DHT22;4736;52.508;13.422;2022-08-21T07:41:44;20.50;1.00
9393;DHT22;4736;52.508;13.422;2022-08-21T07:44:47;20.50;1.00
9393;DHT22;4736;52.508;13.422;2022-08-21T07:47:55;20.60;1.00
9393;DHT22;4736;52.508;13.422;2022-08-21T07:51:04;20.70;1.00
9393;DHT22;4736;52.508;13.422;2022-08-21T07:54:08;20.80;1.00
9393;DHT22;4736;52.508;13.422;2022-08-21T07:57:17;20.90;1.00
9393;DHT22;4736;52.508;13.422;2022-08-21T08:00:24;20.90;1.00
9393;DHT22;4736;52.508;13.422;2022-08-21T08:03:28;21.00;1.00
9393;DHT22;4736;52.508;13.422;2022-08-21T08:06:31;21.10;1.00
9393;DHT22;4736;52.508;13.422;2022-08-21T08:09:35;21.10;1.00
9393;DHT22;4736;52.508;13.422;2022-08-21T08:12:39;21.20;1.00
9393;DHT22;4736;52.508;13.422;2022-08-21T08:15:42;21.20;1.00
9393;DHT22;4736;52.508;13.422;2022-08-21T08:18:47;21.30;1.00
9393;DHT22;4736;52.508;13.422;2022-08-21T08:21:50;21.40;1.00
9393;DHT22;4736;52.508;13.422;2022-08-21T08:24:54;21.40;1.00
9393;DHT22;4736;52.508;13.422;2022-08-21T08:27:57;21.50;1.00
9393;DHT22;4736;52.508;13.422;2022-08-21T08:31:00;21.50;1.00
9393;DHT22;4736;52.508;13.422;2022-08-21T08:34:05;21.70;1.00
9393;DHT22;4736;52.508;13.422;2022-08-21T08:37:09;21.80;1.00
9393;DHT22;4736;52.508;13.422;2022-08-21T08:40:14;22.00;1.00
9393;DHT22;4736;52.508;13.422;2022-08-21T08:43:21;22.00;1.00
9393;DHT22;4736;52.508;13.422;2022-08-21T08:46:31;22.00;1.00
9393;DHT22;4736;52.508;13.422;2022-08-21T08:49:41;22.00;1.00
9393;DHT22;4736;52.508;13.422;2022-08-21T08:52:48;22.10;1.00
9393;DHT22;4736;52.508;13.422;2022-08-21T08:55:52;22.20;1.00
9393;DHT22;4736;52.508;13.422;2022-08-21T08:59:02;22.20;1.00
9393;DHT22;4736;52.508;13.422;2022-08-21T09:02:09;22.20;1.00
9393;DHT22;4736;52.508;13.422;2022-08-21T09:05:21;22.20;1.00
9393;DHT22;4736;52.508;13.422;2022-08-21T09:08:46;22.20;1.00
9393;DHT22;4736;52.508;13.422;2022-08-21T09:11:57;22.40;1.00
9393;DHT22;4736;52.508;13.422;2022-08-21T09:15:19;22.40;1.00
9393;DHT22;4736;52.508;13.422;2022-08-21T09:18:33;22.40;1.00
9393;DHT22;4736;52.508;13.422;2022-08-21T09:21:47;22.40;1.00
9393;DHT22;4736;52.508;13.422;2022-08-21T09:25:03;22.50;1.00
9393;DHT22;4736;52.508;13.422;2022-08-21T09:28:10;22.50;1.00
9393;DHT22;4736;52.508;13.422;2022-08-21T09:31:22;22.60;1.00
9393;DHT22;4736;52.508;13.422;2022-08-21T09:34:28;22.70;1.00
9393;DHT22;4736;52.508;13.422;2022-08-21T09:37:46;22.70;1.00
9393;DHT22;4736;52.508;13.422;2022-08-21T09:40:57;22.80;1.00
9393;DHT22;4736;52.508;13.422;2022-08-21T09:44:00;22.80;1.00
9393;DHT22;4736;52.508;13.422;2022-08-21T09:47:03;22.90;1.00
9393;DHT22;4736;52.508;13.422;2022-08-21T09:50:08;22.90;1.00
9393;DHT22;4736;52.508;13.422;2022-08-21T09:53:19;23.00;1.00
9393;DHT22;4736;52.508;13.422;2022-08-21T09:56:28;23.10;1.00
9393;DHT22;4736;52.508;13.422;2022-08-21T09:59:49;23.20;1.00
9393;DHT22;4736;52.508;13.422;2022-08-21T10:02:53;23.30;1.00
9393;DHT22;4736;52.508;13.422;2022-08-21T10:05:58;23.50;1.00
9393;DHT22;4736;52.508;13.422;2022-08-21T10:09:08;23.60;1.00
9393;DHT22;4736;52.508;13.422;2022-08-21T10:12:22;23.60;1.00
9393;DHT22;4736;52.508;13.422;2022-08-21T10:15:38;23.70;1.00
9393;DHT22;4736;52.508;13.422;2022-08-21T10:18:47;23.80;1.00
9393;DHT22;4736;52.508;13.422;2022-08-21T10:22:02;23.80;1.00
9393;DHT22;4736;52.508;13.422;2022-08-21T10:25:18;23.70;1.00
9393;DHT22;4736;52.508;13.422;2022-08-21T10:28:27;23.70;1.00
9393;DHT22;4736;52.508;13.422;2022-08-21T10:31:43;23.80;1.00
9393;DHT22;4736;52.508;13.422;2022-08-21T10:34:59;23.70;1.00
9393;DHT22;4736;52.508;13.422;2022-08-21T10:42:28;23.80;1.00
9393;DHT22;4736;52.508;13.422;2022-08-21T10:45:48;23.90;1.00
9393;DHT22;4736;52.508;13.422;2022-08-21T10:48:57;24.00;1.00
9393;DHT22;4736;52.508;13.422;2022-08-21T10:52:15;24.00;1.00
9393;DHT22;4736;52.508;13.422;2022-08-21T10:55:22;24.10;1.00
9393;DHT22;4736;52.508;13.422;2022-08-21T10:58:29;24.20;1.00
9393;DHT22;4736;52.508;13.422;2022-08-21T11:01:41;24.10;1.00
9393;DHT22;4736;52.508;13.422;2022-08-21T11:04:52;24.00;1.00
9393;DHT22;4736;52.508;13.422;2022-08-21T11:08:02;24.00;1.00
9393;DHT22;4736;52.508;13.422;2022-08-21T11:11:10;24.00;1.00
9393;DHT22;4736;52.508;13.422;2022-08-21T11:14:25;24.10;1.00
9393;DHT22;4736;52.508;13.422;2022-08-21T11:17:35;24.40;1.00
9393;DHT22;4736;52.508;13.422;2022-08-21T11:20:43;24.50;1.00
9393;DHT22;4736;52.508;13.422;2022-08-21T11:23:54;24.50;1.00
9393;DHT22;4736;52.508;13.422;2022-08-21T11:27:05;24.70;1.00
9393;DHT22;4736;52.508;13.422;2022-08-21T11:30:12;24.80;1.00
9393;DHT22;4736;52.508;13.422;2022-08-21T11:37:02;25.00;1.00
9393;DHT22;4736;52.508;13.422;2022-08-21T11:40:15;24.90;1.00
9393;DHT22;4736;52.508;13.422;2022-08-21T11:43:30;25.00;1.00
9393;DHT22;4736;52.508;13.422;2022-08-21T11:46:47;25.10;1.00
9393;DHT22;4736;52.508;13.422;2022-08-21T11:49:59;25.20;1.00
9393;DHT22;4736;52.508;13.422;2022-08-21T11:53:13;25.20;1.00
9393;DHT22;4736;52.508;13.422;2022-08-21T11:56:21;25.30;1.00
9393;DHT22;4736;52.508;13.422;2022-08-21T11:59:35;25.50;1.00
9393;DHT22;4736;52.508;13.422;2022-08-21T12:02:47;25.60;1.00
9393;DHT22;4736;52.508;13.422;2022-08-21T12:05:54;25.60;1.00
9393;DHT22;4736;52.508;13.422;2022-08-21T12:08:59;25.70;1.00
9393;DHT22;4736;52.508;13.422;2022-08-21T12:12:13;25.70;1.00
9393;DHT22;4736;52.508;13.422;2022-08-21T12:15:27;25.50;1.00
9393;DHT22;4736;52.508;13.422;2022-08-21T12:18:32;25.40;1.00
9393;DHT22;4736;52.508;13.422;2022-08-21T12:21:48;25.40;1.00
9393;DHT22;4736;52.508;13.422;2022-08-21T12:25:05;25.40;1.00
9393;DHT22;4736;52.508;13.422;2022-08-21T12:28:11;25.50;1.00
9393;DHT22;4736;52.508;13.422;2022-08-21T12:31:23;25.60;1.00
9393;DHT22;4736;52.508;13.422;2022-08-21T12:34:32;25.60;1.00
9393;DHT22;4736;52.508;13.422;2022-08-21T12:37:39;25.60;1.00
9393;DHT22;4736;52.508;13.422;2022-08-21T12:40:47;25.50;1.00
9393;DHT22;4736;52.508;13.422;2022-08-21T12:43:53;25.50;1.00
9393;DHT22;4736;52.508;13.422;2022-08-21T12:47:03;25.50;1.00
9393;DHT22;4736;52.508;13.422;2022-08-21T12:50:13;25.60;1.00
9393;DHT22;4736;52.508;13.422;2022-08-21T12:53:27;25.80;1.00
9393;DHT22;4736;52.508;13.422;2022-08-21T12:56:33;25.80;1.00
9393;DHT22;4736;52.508;13.422;2022-08-21T12:59:42;25.80;1.00
9393;DHT22;4736;52.508;13.422;2022-08-21T13:02:48;25.60;1.00
9393;DHT22;4736;52.508;13.422;2022-08-21T13:05:54;25.60;1.00
9393;DHT22;4736;52.508;13.422;2022-08-21T13:09:03;25.60;1.00
9393;DHT22;4736;52.508;13.422;2022-08-21T13:12:08;25.60;1.00
9393;DHT22;4736;52.508;13.422;2022-08-21T13:15:12;25.60;1.00
9393;DHT22;4736;52.508;13.422;2022-08-21T13:18:25;25.50;1.00
9393;DHT22;4736;52.508;13.422;2022-08-21T13:21:33;25.60;1.00
9393;DHT22;4736;52.508;13.422;2022-08-21T13:24:39;25.70;1.00
9393;DHT22;4736;52.508;13.422;2022-08-21T13:27:58;25.80;1.00
9393;DHT22;4736;52.508;13.422;2022-08-21T13:31:01;25.80;1.00
9393;DHT22;4736;52.508;13.422;2022-08-21T13:34:06;25.90;1.00
9393;DHT22;4736;52.508;13.422;2022-08-21T13:37:11;26.00;1.00
9393;DHT22;4736;52.508;13.422;2022-08-21T13:40:17;26.00;1.00
9393;DHT22;4736;52.508;13.422;2022-08-21T13:43:26;25.90;1.00
9393;DHT22;4736;52.508;13.422;2022-08-21T13:46:33;26.00;1.00
9393;DHT22;4736;52.508;13.422;2022-08-21T13:49:39;25.90;1.00
9393;DHT22;4736;52.508;13.422;2022-08-21T13:52:59;25.90;1.00
9393;DHT22;4736;52.508;13.422;2022-08-21T13:56:03;25.70;1.00
9393;DHT22;4736;52.508;13.422;2022-08-21T13:59:06;25.70;1.00
9393;DHT22;4736;52.508;13.422;2022-08-21T14:02:13;25.70;1.00
9393;DHT22;4736;52.508;13.422;2022-08-21T14:05:20;25.90;1.00
9393;DHT22;4736;52.508;13.422;2022-08-21T14:08:33;25.90;1.00
9393;DHT22;4736;52.508;13.422;2022-08-21T14:11:37;26.10;1.00
9393;DHT22;4736;52.508;13.422;2022-08-21T14:14:41;26.20;1.00
9393;DHT22;4736;52.508;13.422;2022-08-21T14:17:45;26.30;1.00
9393;DHT22;4736;52.508;13.422;2022-08-21T14:20:48;26.30;1.00
9393;DHT22;4736;52.508;13.422;2022-08-21T14:24:07;26.30;1.00
9393;DHT22;4736;52.508;13.422;2022-08-21T14:27:18;26.10;1.00
9393;DHT22;4736;52.508;13.422;2022-08-21T14:30:29;25.90;1.00
9393;DHT22;4736;52.508;13.422;2022-08-21T14:33:32;25.90;1.00
9393;DHT22;4736;52.508;13.422;2022-08-21T14:36:38;25.90;1.00
9393;DHT22;4736;52.508;13.422;2022-08-21T14:39:42;25.80;1.00
9393;DHT22;4736;52.508;13.422;2022-08-21T14:42:46;25.80;1.00
9393;DHT22;4736;52.508;13.422;2022-08-21T14:45:50;25.60;1.00
9393;DHT22;4736;52.508;13.422;2022-08-21T14:48:54;25.40;1.00
9393;DHT22;4736;52.508;13.422;2022-08-21T14:51:57;25.20;1.00
9393;DHT22;4736;52.508;13.422;2022-08-21T14:55:02;25.10;1.00
9393;DHT22;4736;52.508;13.422;2022-08-21T14:58:16;24.90;1.00
9393;DHT22;4736;52.508;13.422;2022-08-21T15:01:21;24.80;1.00
9393;DHT22;4736;52.508;13.422;2022-08-21T15:04:25;24.80;1.00
9393;DHT22;4736;52.508;13.422;2022-08-21T15:07:27;24.70;1.00
9393;DHT22;4736;52.508;13.422;2022-08-21T15:10:33;24.60;1.00
9393;DHT22;4736;52.508;13.422;2022-08-21T15:13:56;24.50;1.00
9393;DHT22;4736;52.508;13.422;2022-08-21T15:17:06;24.50;1.00
9393;DHT22;4736;52.508;13.422;2022-08-21T15:20:10;24.40;1.00
9393;DHT22;4736;52.508;13.422;2022-08-21T15:23:12;24.30;1.00
9393;DHT22;4736;52.508;13.422;2022-08-21T15:26:22;24.10;1.00
9393;DHT22;4736;52.508;13.422;2022-08-21T15:29:26;24.10;1.00
9393;DHT22;4736;52.508;13.422;2022-08-21T15:32:34;24.10;1.00
9393;DHT22;4736;52.508;13.422;2022-08-21T15:35:37;24.10;1.00
9393;DHT22;4736;52.508;13.422;2022-08-21T15:38:41;24.20;1.00
9393;DHT22;4736;52.508;13.422;2022-08-21T15:41:47;24.30;1.00
9393;DHT22;4736;52.508;13.422;2022-08-21T15:44:51;24.40;1.00
9393;DHT22;4736;52.508;13.422;2022-08-21T15:47:56;24.40;1.00
9393;DHT22;4736;52.508;13.422;2022-08-21T15:50:59;24.40;1.00
9393;DHT22;4736;52.508;13.422;2022-08-21T15:54:02;24.40;1.00
9393;DHT22;4736;52.508;13.422;2022-08-21T15:57:09;24.50;1.00
9393;DHT22;4736;52.508;13.422;2022-08-21T16:00:15;24.40;1.00
9393;DHT22;4736;52.508;13.422;2022-08-21T16:03:19;24.30;1.00
9393;DHT22;4736;52.508;13.422;2022-08-21T16:06:32;24.20;1.00
9393;DHT22;4736;52.508;13.422;2022-08-21T16:09:39;24.10;1.00
9393;DHT22;4736;52.508;13.422;2022-08-21T16:12:46;24.10;1.00
9393;DHT22;4736;52.508;13.422;2022-08-21T16:15:50;24.00;1.00
9393;DHT22;4736;52.508;13.422;2022-08-21T16:18:53;24.00;1.00
9393;DHT22;4736;52.508;13.422;2022-08-21T16:21:57;23.90;1.00
9393;DHT22;4736;52.508;13.422;2022-08-21T16:25:00;23.90;1.00
9393;DHT22;4736;52.508;13.422;2022-08-21T16:28:07;23.90;1.00
9393;DHT22;4736;52.508;13.422;2022-08-21T16:31:13;23.90;1.00
9393;DHT22;4736;52.508;13.422;2022-08-21T16:34:17;23.80;1.00
9393;DHT22;4736;52.508;13.422;2022-08-21T16:37:23;23.80;1.00
9393;DHT22;4736;52.508;13.422;2022-08-21T16:40:27;23.70;1.00
9393;DHT22;4736;52.508;13.422;2022-08-21T16:43:32;23.70;1.00
9393;DHT22;4736;52.508;13.422;2022-08-21T16:46:39;23.50;1.00
9393;DHT22;4736;52.508;13.422;2022-08-21T16:49:42;23.50;1.00
9393;DHT22;4736;52.508;13.422;2022-08-21T16:52:47;23.30;1.00
9393;DHT22;4736;52.508;13.422;2022-08-21T16:55:51;23.30;1.00
9393;DHT22;4736;52.508;13.422;2022-08-21T16:58:57;23.20;1.00
9393;DHT22;4736;52.508;13.422;2022-08-21T17:02:01;23.10;1.00
9393;DHT22;4736;52.508;13.422;2022-08-21T17:05:04;23.10;1.00
9393;DHT22;4736;52.508;13.422;2022-08-21T17:08:17;23.00;1.00
9393;DHT22;4736;52.508;13.422;2022-08-21T17:11:24;23.00;1.00
9393;DHT22;4736;52.508;13.422;2022-08-21T17:14:40;22.90;1.00
9393;DHT22;4736;52.508;13.422;2022-08-21T17:17:43;22.90;1.00
9393;DHT22;4736;52.508;13.422;2022-08-21T17:20:47;22.80;1.00
9393;DHT22;4736;52.508;13.422;2022-08-21T17:23:50;22.80;1.00
9393;DHT22;4736;52.508;13.422;2022-08-21T17:26:54;22.70;1.00
9393;DHT22;4736;52.508;13.422;2022-08-21T17:29:59;22.60;1.00
9393;DHT22;4736;52.508;13.422;2022-08-21T17:33:02;22.50;1.00
9393;DHT22;4736;52.508;13.422;2022-08-21T17:36:06;22.50;1.00
9393;DHT22;4736;52.508;13.422;2022-08-21T17:39:09;22.40;1.00
9393;DHT22;4736;52.508;13.422;2022-08-21T17:42:17;22.30;1.00
9393;DHT22;4736;52.508;13.422;2022-08-21T17:45:21;22.20;1.00
9393;DHT22;4736;52.508;13.422;2022-08-21T17:48:24;22.10;1.00
9393;DHT22;4736;52.508;13.422;2022-08-21T17:51:27;22.10;1.00
9393;DHT22;4736;52.508;13.422;2022-08-21T17:54:30;22.00;1.00
9393;DHT22;4736;52.508;13.422;2022-08-21T17:57:34;22.00;1.00
9393;DHT22;4736;52.508;13.422;2022-08-21T18:00:39;21.90;1.00
9393;DHT22;4736;52.508;13.422;2022-08-21T18:03:42;21.80;1.00
9393;DHT22;4736;52.508;13.422;2022-08-21T18:06:48;21.60;1.00
9393;DHT22;4736;52.508;13.422;2022-08-21T18:09:51;21.60;1.00
9393;DHT22;4736;52.508;13.422;2022-08-21T18:12:58;21.50;1.00
9393;DHT22;4736;52.508;13.422;2022-08-21T18:16:05;21.40;1.00
9393;DHT22;4736;52.508;13.422;2022-08-21T18:19:10;21.30;1.00
9393;DHT22;4736;52.508;13.422;2022-08-21T18:22:16;21.20;1.00
9393;DHT22;4736;52.508;13.422;2022-08-21T18:25:19;21.10;1.00
9393;DHT22;4736;52.508;13.422;2022-08-21T18:28:23;21.00;1.00
9393;DHT22;4736;52.508;13.422;2022-08-21T18:31:29;20.90;1.00
9393;DHT22;4736;52.508;13.422;2022-08-21T18:34:40;20.80;1.00
9393;DHT22;4736;52.508;13.422;2022-08-21T18:37:44;20.80;1.00
9393;DHT22;4736;52.508;13.422;2022-08-21T18:40:50;20.70;1.00
9393;DHT22;4736;52.508;13.422;2022-08-21T18:43:57;20.60;1.00
9393;DHT22;4736;52.508;13.422;2022-08-21T18:47:03;20.50;1.00
9393;DHT22;4736;52.508;13.422;2022-08-21T18:50:08;20.50;1.00
9393;DHT22;4736;52.508;13.422;2022-08-21T18:53:13;20.40;1.00
9393;DHT22;4736;52.508;13.422;2022-08-21T18:56:37;20.30;1.00
9393;DHT22;4736;52.508;13.422;2022-08-21T18:59:41;20.30;1.00
9393;DHT22;4736;52.508;13.422;2022-08-21T19:02:46;20.20;1.00
9393;DHT22;4736;52.508;13.422;2022-08-21T19:05:49;20.20;1.00
9393;DHT22;4736;52.508;13.422;2022-08-21T19:08:52;20.10;1.00
9393;DHT22;4736;52.508;13.422;2022-08-21T19:11:56;20.00;1.00
9393;DHT22;4736;52.508;13.422;2022-08-21T19:15:00;20.00;1.00
9393;DHT22;4736;52.508;13.422;2022-08-21T19:18:09;19.90;1.00
9393;DHT22;4736;52.508;13.422;2022-08-21T19:21:12;19.90;1.00
9393;DHT22;4736;52.508;13.422;2022-08-21T19:24:16;19.80;1.00
9393;DHT22;4736;52.508;13.422;2022-08-21T19:27:24;19.80;1.00
9393;DHT22;4736;52.508;13.422;2022-08-21T19:30:27;19.80;1.00
9393;DHT22;4736;52.508;13.422;2022-08-21T19:33:34;19.70;1.00
9393;DHT22;4736;52.508;13.422;2022-08-21T19:36:45;19.70;1.00
9393;DHT22;4736;52.508;13.422;2022-08-21T19:39:49;19.70;1.00
9393;DHT22;4736;52.508;13.422;2022-08-21T19:42:52;19.60;1.00
9393;DHT22;4736;52.508;13.422;2022-08-21T19:45:56;19.60;1.00
9393;DHT22;4736;52.508;13.422;2022-08-21T19:49:04;19.60;1.00
9393;DHT22;4736;52.508;13.422;2022-08-21T19:52:11;19.60;1.00
9393;DHT22;4736;52.508;13.422;2022-08-21T19:55:15;19.60;1.00
9393;DHT22;4736;52.508;13.422;2022-08-21T19:58:34;19.60;1.00
9393;DHT22;4736;52.508;13.422;2022-08-21T20:01:43;19.60;1.00
9393;DHT22;4736;52.508;13.422;2022-08-21T20:04:48;19.60;1.00
9393;DHT22;4736;52.508;13.422;2022-08-21T20:08:05;19.50;1.00
9393;DHT22;4736;52.508;13.422;2022-08-21T20:11:30;19.50;1.00
9393;DHT22;4736;52.508;13.422;2022-08-21T20:14:40;19.50;1.00
9393;DHT22;4736;52.508;13.422;2022-08-21T20:17:44;19.50;1.00
9393;DHT22;4736;52.508;13.422;2022-08-21T20:20:48;19.40;1.00
9393;DHT22;4736;52.508;13.422;2022-08-21T20:23:51;19.40;1.00
9393;DHT22;4736;52.508;13.422;2022-08-21T20:26:55;19.40;1.00